createdAt,value
2023-04-05T00:01:29.773Z,11.07
2023-04-05T00:03:59.476Z,10.70
2023-04-05T00:06:29.285Z,11.00
2023-04-05T00:08:57.646Z,11.13
2023-04-05T00:11:26.461Z,10.97
2023-04-05T00:13:54.836Z,11.17
2023-04-05T00:16:23.437Z,11.83
2023-04-05T00:18:53.765Z,12.27
2023-04-05T00:21:22.966Z,11.50
2023-04-05T00:23:51.723Z,12.43
2023-04-05T00:26:20.509Z,14.47
2023-04-05T00:28:49.643Z,14.27
2023-04-05T00:31:21.024Z,13.07
2023-04-05T00:33:49.250Z,12.83
2023-04-05T00:36:21.135Z,12.37
2023-04-05T00:38:50.763Z,12.90
2023-04-05T00:41:19.055Z,12.77
2023-04-05T00:43:47.969Z,13.13
2023-04-05T00:46:16.977Z,12.67
2023-04-05T00:48:45.724Z,13.53
2023-04-05T00:51:14.057Z,11.57
2023-04-05T00:53:44.989Z,11.07
2023-04-05T00:56:14.116Z,11.07
2023-04-05T00:58:42.988Z,11.20
2023-04-05T01:01:16.593Z,10.23
2023-04-05T01:03:50.235Z,10.17
2023-04-05T01:06:28.133Z,10.93
2023-04-05T01:09:07.996Z,10.17
2023-04-05T01:11:39.225Z,9.40
2023-04-05T01:14:07.611Z,9.47
2023-04-05T01:16:35.641Z,9.70
2023-04-05T01:19:04.538Z,9.37
2023-04-05T01:22:15.223Z,9.57
2023-04-05T01:25:21.790Z,9.47
2023-04-05T01:28:24.516Z,9.27
2023-04-05T01:31:00.778Z,9.10
2023-04-05T01:33:39.830Z,9.53
2023-04-05T01:36:16.517Z,9.30
2023-04-05T01:38:47.578Z,9.93
2023-04-05T01:41:16.200Z,11.47
2023-04-05T01:43:44.466Z,10.63
2023-04-05T01:46:14.261Z,11.00
2023-04-05T01:48:45.105Z,9.50
2023-04-05T01:51:15.239Z,10.40
2023-04-05T01:53:43.436Z,9.73
2023-04-05T01:56:11.537Z,11.07
2023-04-05T01:58:39.856Z,10.63
2023-04-05T02:01:08.055Z,11.03
2023-04-05T02:03:37.747Z,11.40
2023-04-05T02:06:06.716Z,11.33
2023-04-05T02:08:35.064Z,11.07
2023-04-05T02:11:03.528Z,12.00
2023-04-05T02:13:31.892Z,14.33
2023-04-05T02:15:59.979Z,15.90
2023-04-05T02:18:32.064Z,15.80
2023-04-05T02:21:05.698Z,13.80
2023-04-05T02:23:34.398Z,14.10
2023-04-05T02:26:14.515Z,14.37
2023-04-05T02:28:42.865Z,15.37
2023-04-05T02:31:12.052Z,18.30
2023-04-05T02:33:41.281Z,16.13
2023-04-05T02:36:13.363Z,17.47
2023-04-05T02:38:41.997Z,17.67
2023-04-05T02:41:11.796Z,18.63
2023-04-05T02:43:40.078Z,17.70
2023-04-05T02:46:08.427Z,19.03
2023-04-05T02:48:36.803Z,20.73
2023-04-05T02:51:05.418Z,20.17
2023-04-05T02:53:34.913Z,21.47
2023-04-05T02:56:06.774Z,21.10
2023-04-05T02:58:35.021Z,24.67
2023-04-05T03:01:07.470Z,27.97
2023-04-05T03:03:35.866Z,28.90
2023-04-05T03:06:10.412Z,30.07
2023-04-05T03:08:44.095Z,30.17
2023-04-05T03:11:12.787Z,30.47
2023-04-05T03:13:42.869Z,29.03
2023-04-05T03:16:10.921Z,29.20
2023-04-05T03:18:42.058Z,29.57
2023-04-05T03:21:12.433Z,30.43
2023-04-05T03:23:42.987Z,28.93
2023-04-05T03:26:11.365Z,29.17
2023-04-05T03:28:45.207Z,29.57
2023-04-05T03:31:14.187Z,31.67
2023-04-05T03:33:43.291Z,32.93
2023-04-05T03:36:11.545Z,32.97
2023-04-05T03:38:42.641Z,32.73
2023-04-05T03:41:12.351Z,33.60
2023-04-05T03:43:40.789Z,38.10
2023-04-05T03:46:08.963Z,38.57
2023-04-05T03:48:37.609Z,39.57
2023-04-05T03:51:06.300Z,40.33
2023-04-05T03:53:34.463Z,41.50
2023-04-05T03:56:04.093Z,42.30
2023-04-05T03:58:32.188Z,40.37
2023-04-05T04:01:00.135Z,41.40
2023-04-05T04:03:28.981Z,42.23
2023-04-05T04:06:01.990Z,41.27
2023-04-05T04:08:33.855Z,41.60
2023-04-05T04:11:06.536Z,40.27
2023-04-05T04:13:34.946Z,40.20
2023-04-05T04:16:04.088Z,39.93
2023-04-05T04:18:34.056Z,40.77
2023-04-05T04:21:07.088Z,40.83
2023-04-05T04:23:38.591Z,40.23
2023-04-05T04:26:08.313Z,39.10
2023-04-05T04:28:39.257Z,39.10
2023-04-05T04:31:09.445Z,40.93
2023-04-05T04:33:38.169Z,40.53
2023-04-05T04:36:13.685Z,39.67
2023-04-05T04:38:46.762Z,39.87
2023-04-05T04:41:17.724Z,40.90
2023-04-05T04:43:46.114Z,39.67
2023-04-05T04:46:15.875Z,41.23
2023-04-05T04:48:44.219Z,41.23
2023-04-05T04:51:12.412Z,41.43
2023-04-05T04:53:50.868Z,39.83
2023-04-05T04:56:21.237Z,40.10
2023-04-05T04:58:56.288Z,42.00
2023-04-05T05:01:25.349Z,42.70
2023-04-05T05:03:54.849Z,42.53
2023-04-05T05:06:23.202Z,43.67
2023-04-05T05:08:51.698Z,42.40
2023-04-05T05:11:21.415Z,42.17
2023-04-05T05:13:52.653Z,40.97
2023-04-05T05:16:22.726Z,41.43
2023-04-05T05:18:52.416Z,41.63
2023-04-05T05:21:20.910Z,41.57
2023-04-05T05:23:49.252Z,41.37
2023-04-05T05:26:17.613Z,41.17
2023-04-05T05:28:49.206Z,41.17
2023-04-05T05:31:18.492Z,40.43
2023-04-05T05:33:49.698Z,42.10
2023-04-05T05:36:20.794Z,41.47
2023-04-05T05:38:49.154Z,41.67
2023-04-05T05:41:19.898Z,40.80
2023-04-05T05:43:49.630Z,42.27
2023-04-05T05:46:21.158Z,40.80
2023-04-05T05:48:49.616Z,42.57
2023-04-05T05:51:18.307Z,42.40
2023-04-05T05:53:47.333Z,42.17
2023-04-05T05:56:15.583Z,42.50
2023-04-05T05:58:43.912Z,41.73
2023-04-05T06:01:14.567Z,41.57
2023-04-05T06:03:42.899Z,41.27
2023-04-05T06:06:11.579Z,40.93
2023-04-05T06:08:40.056Z,40.93
2023-04-05T06:11:08.173Z,41.10
2023-04-05T06:13:38.082Z,41.80
2023-04-05T06:16:07.481Z,41.53
2023-04-05T06:18:37.215Z,41.57
2023-04-05T06:21:05.650Z,41.00
2023-04-05T06:23:33.959Z,42.23
2023-04-05T06:26:02.576Z,42.00
2023-04-05T06:28:31.410Z,42.27
2023-04-05T06:31:00.762Z,42.00
2023-04-05T06:33:32.043Z,42.57
2023-04-05T06:36:01.891Z,43.50
2023-04-05T06:38:30.390Z,42.83
2023-04-05T06:40:59.058Z,43.77
2023-04-05T06:43:27.933Z,44.00
2023-04-05T06:46:00.014Z,43.13
2023-04-05T06:48:31.350Z,43.30
2023-04-05T06:51:02.550Z,41.97
2023-04-05T06:53:32.369Z,41.60
2023-04-05T06:56:01.538Z,41.10
2023-04-05T06:58:30.608Z,41.27
2023-04-05T07:00:59.303Z,39.93
2023-04-05T07:03:27.589Z,40.43
2023-04-05T07:05:59.213Z,39.87
2023-04-05T07:08:29.604Z,40.20
2023-04-05T07:10:57.883Z,37.70
2023-04-05T07:13:31.231Z,34.87
2023-04-05T07:16:08.313Z,35.70
2023-04-05T07:18:36.686Z,33.53
2023-04-05T07:21:07.142Z,33.17
2023-04-05T07:23:36.835Z,32.53
2023-04-05T07:26:06.206Z,29.87
2023-04-05T07:28:35.916Z,26.73
2023-04-05T07:31:05.088Z,26.90
2023-04-05T07:33:35.158Z,27.30
2023-04-05T07:36:08.207Z,24.57
2023-04-05T07:38:38.015Z,23.77
2023-04-05T07:41:09.193Z,22.63
2023-04-05T07:43:37.796Z,20.43
2023-04-05T07:46:09.012Z,18.43
2023-04-05T07:48:39.464Z,18.27
2023-04-05T07:51:11.165Z,15.63
2023-04-05T07:53:41.387Z,12.17
2023-04-05T07:56:14.604Z,12.80
2023-04-05T07:58:43.260Z,12.87
2023-04-05T08:01:12.386Z,12.40
2023-04-05T08:03:41.187Z,12.27
2023-04-05T08:06:14.296Z,11.10
2023-04-05T08:08:44.633Z,10.73
2023-04-05T08:11:19.038Z,9.37
2023-04-05T08:13:57.668Z,9.23
2023-04-05T08:16:28.341Z,10.27
2023-04-05T08:18:59.941Z,9.70
2023-04-05T08:21:28.668Z,9.07
2023-04-05T08:24:00.520Z,9.60
2023-04-05T08:26:34.308Z,9.60
2023-04-05T08:29:11.658Z,9.00
2023-04-05T08:31:40.188Z,10.10
2023-04-05T08:34:11.322Z,9.80
2023-04-05T08:36:39.896Z,8.90
2023-04-05T08:39:11.778Z,9.27
2023-04-05T08:41:51.636Z,9.17
2023-04-05T08:44:24.286Z,9.67
2023-04-05T08:47:00.213Z,9.13
2023-04-05T08:49:29.622Z,9.73
2023-04-05T08:52:03.118Z,8.73
2023-04-05T08:54:33.086Z,9.40
2023-04-05T08:57:05.974Z,9.50
2023-04-05T08:59:36.091Z,9.13
2023-04-05T09:02:10.149Z,9.53
2023-04-05T09:04:45.143Z,10.40
2023-04-05T09:07:15.502Z,9.20
2023-04-05T09:09:52.590Z,8.97
2023-04-05T09:12:23.234Z,8.83
2023-04-05T09:14:58.959Z,9.27
2023-04-05T09:17:30.858Z,9.27
2023-04-05T09:20:01.635Z,9.57
2023-04-05T09:22:30.572Z,8.80
2023-04-05T09:25:01.977Z,9.02
2023-04-05T09:27:37.722Z,9.27
2023-04-05T09:30:40.254Z,8.80
2023-04-05T09:33:27.881Z,7.80
2023-04-05T09:35:58.829Z,8.77
2023-04-05T09:38:46.644Z,7.75
2023-04-05T09:41:24.116Z,8.88
2023-04-05T09:43:55.183Z,8.27
2023-04-05T09:46:32.883Z,8.82
2023-04-05T09:49:01.641Z,9.15
2023-04-05T09:51:37.707Z,9.00
2023-04-05T09:54:07.772Z,8.32
2023-04-05T09:56:39.158Z,9.13
2023-04-05T09:59:12.120Z,8.40
2023-04-05T10:01:44.495Z,8.13
2023-04-05T10:04:12.963Z,8.05
2023-04-05T10:06:43.108Z,8.30
2023-04-05T10:09:12.448Z,8.50
2023-04-05T10:11:47.802Z,9.07
2023-04-05T10:14:16.698Z,9.15
2023-04-05T10:16:52.726Z,8.05
2023-04-05T10:19:28.093Z,8.32
2023-04-05T10:22:02.406Z,8.93
2023-04-05T10:24:37.924Z,7.88
2023-04-05T10:27:15.562Z,9.52
2023-04-05T10:29:52.275Z,8.52
2023-04-05T10:32:31.556Z,8.23
2023-04-05T10:35:09.277Z,9.10
2023-04-05T10:37:44.581Z,8.52
2023-04-05T10:40:17.114Z,8.10
2023-04-05T10:42:48.969Z,8.95
2023-04-05T10:45:22.598Z,8.35
2023-04-05T10:47:56.726Z,8.55
2023-04-05T10:50:32.669Z,9.25
2023-04-05T10:53:01.975Z,8.35
2023-04-05T10:55:32.802Z,8.25
2023-04-05T10:58:03.644Z,8.70
2023-04-05T11:00:34.505Z,8.50
2023-04-05T11:03:03.114Z,8.32
2023-04-05T11:05:34.290Z,8.00
2023-04-05T11:08:29.092Z,9.18
2023-04-05T11:10:56.669Z,8.05
2023-04-05T11:13:50.029Z,7.60
2023-04-05T11:16:22.915Z,7.35
2023-04-05T11:18:52.436Z,7.18
2023-04-05T11:21:38.577Z,7.78
2023-04-05T11:24:09.625Z,7.53
2023-04-05T11:27:10.709Z,8.60
2023-04-05T11:29:52.489Z,7.68
2023-04-05T11:32:21.981Z,8.13
2023-04-05T11:35:06.716Z,7.63
2023-04-05T11:38:09.705Z,7.40
2023-04-05T11:40:43.681Z,8.85
2023-04-05T11:43:13.259Z,9.43
2023-04-05T11:45:43.609Z,9.38
2023-04-05T11:48:13.719Z,9.10
2023-04-05T11:50:43.092Z,9.48
2023-04-05T11:53:12.994Z,9.43
2023-04-05T11:55:43.271Z,8.63
2023-04-05T11:58:16.503Z,9.13
2023-04-05T12:01:00.570Z,8.57
2023-04-05T12:03:30.299Z,9.15
2023-04-05T12:06:03.166Z,8.82
2023-04-05T12:08:42.420Z,10.65
2023-04-05T12:11:14.759Z,8.90
2023-04-05T12:13:43.005Z,9.27
2023-04-05T12:16:12.767Z,9.00
2023-04-05T12:18:41.221Z,10.23
2023-04-05T12:21:18.351Z,9.52
2023-04-05T12:23:46.835Z,9.13
2023-04-05T12:26:15.771Z,9.35
2023-04-05T12:28:54.677Z,8.82
2023-04-05T12:31:41.204Z,8.35
2023-04-05T12:34:10.370Z,9.18
2023-04-05T12:36:48.904Z,9.18
2023-04-05T12:39:18.545Z,9.50
2023-04-05T12:41:57.225Z,8.65
2023-04-05T12:44:31.677Z,9.27
2023-04-05T12:47:12.249Z,10.27
2023-04-05T12:49:40.389Z,9.20
2023-04-05T12:52:08.981Z,10.20
2023-04-05T12:54:37.344Z,9.40
2023-04-05T12:57:09.097Z,8.95
2023-04-05T12:59:37.608Z,8.23
2023-04-05T13:02:07.923Z,9.00
2023-04-05T13:04:36.353Z,8.60
2023-04-05T13:07:05.131Z,9.05
2023-04-05T13:09:35.635Z,9.65
2023-04-05T13:12:05.810Z,9.70
2023-04-05T13:14:34.226Z,10.05
2023-04-05T13:17:05.366Z,10.73
2023-04-05T13:19:35.282Z,9.73
2023-04-05T13:22:05.814Z,9.95
2023-04-05T13:24:36.468Z,10.57
2023-04-05T13:27:06.193Z,9.80
2023-04-05T13:29:36.727Z,10.85
2023-04-05T13:32:05.196Z,11.93
2023-04-05T13:34:35.102Z,11.75
2023-04-05T13:37:06.738Z,11.10
2023-04-05T13:39:37.724Z,11.57
2023-04-05T13:42:06.422Z,11.75
2023-04-05T13:44:34.783Z,11.27
2023-04-05T13:47:03.473Z,12.00
2023-04-05T13:49:31.911Z,12.40
2023-04-05T13:52:04.880Z,11.90
2023-04-05T13:54:33.510Z,11.43
2023-04-05T13:57:01.970Z,12.88
2023-04-05T13:59:30.628Z,13.07
2023-04-05T14:01:59.273Z,13.07
2023-04-05T14:04:31.233Z,12.80
2023-04-05T14:07:11.263Z,13.30
2023-04-05T14:09:39.817Z,13.35
2023-04-05T14:12:23.175Z,13.80
2023-04-05T14:14:52.667Z,13.77
2023-04-05T14:17:22.324Z,13.90
2023-04-05T14:19:50.918Z,14.48
2023-04-05T14:22:21.846Z,14.40
2023-04-05T14:24:50.162Z,13.55
2023-04-05T14:27:20.347Z,13.57
2023-04-05T14:29:48.756Z,14.30
2023-04-05T14:32:17.818Z,13.75
2023-04-05T14:34:45.991Z,12.50
2023-04-05T14:37:14.588Z,12.40
2023-04-05T14:39:47.285Z,13.15
2023-04-05T14:42:15.764Z,13.20
2023-04-05T14:44:44.101Z,12.68
2023-04-05T14:47:12.435Z,12.35
2023-04-05T14:49:40.630Z,13.00
2023-04-05T14:52:09.298Z,12.57
2023-04-05T14:54:37.832Z,12.27
2023-04-05T14:57:09.935Z,12.27
2023-04-05T14:59:41.345Z,12.25
2023-04-05T15:02:34.943Z,11.93
2023-04-05T15:05:03.708Z,12.35
2023-04-05T15:07:38.164Z,12.40
2023-04-05T15:10:07.424Z,10.93
2023-04-05T15:12:38.871Z,12.98
2023-04-05T15:15:08.582Z,11.95
2023-04-05T15:17:36.906Z,11.70
2023-04-05T15:20:05.762Z,12.27
2023-04-05T15:22:41.746Z,11.98
2023-04-05T15:25:13.455Z,11.32
2023-04-05T15:27:43.551Z,11.63
2023-04-05T15:30:12.804Z,11.52
2023-04-05T15:32:40.947Z,12.43
2023-04-05T15:35:09.913Z,12.80
2023-04-05T15:37:39.357Z,11.80
2023-04-05T15:40:09.175Z,11.52
2023-04-05T15:42:37.456Z,11.40
2023-04-05T15:45:11.738Z,11.20
2023-04-05T15:47:43.300Z,11.80
2023-04-05T15:50:11.554Z,11.23
2023-04-05T15:52:39.919Z,13.45
2023-04-05T15:55:08.636Z,14.00
2023-04-05T15:57:36.836Z,14.23
2023-04-05T16:00:08.831Z,12.85
2023-04-05T16:02:39.980Z,14.18
2023-04-05T16:05:08.516Z,13.60
2023-04-05T16:07:36.876Z,14.45
2023-04-05T16:10:07.163Z,15.05
2023-04-05T16:12:38.316Z,14.60
2023-04-05T16:15:09.267Z,15.25
2023-04-05T16:17:37.590Z,14.15
2023-04-05T16:20:06.809Z,15.68
2023-04-05T16:22:35.494Z,14.77
2023-04-05T16:25:10.031Z,13.50
2023-04-05T16:27:43.419Z,15.05
2023-04-05T16:30:14.230Z,14.35
2023-04-05T16:32:42.734Z,14.18
2023-04-05T16:35:11.581Z,15.10
2023-04-05T16:37:43.200Z,15.25
2023-04-05T16:40:12.781Z,14.35
2023-04-05T16:42:41.802Z,14.20
2023-04-05T16:45:13.416Z,15.05
2023-04-05T16:47:42.241Z,14.13
2023-04-05T16:50:10.900Z,14.20
2023-04-05T16:52:39.241Z,14.70
2023-04-05T16:55:08.586Z,14.40
2023-04-05T16:57:37.115Z,14.38
2023-04-05T17:00:09.331Z,15.15
2023-04-05T17:02:42.016Z,15.20
2023-04-05T17:05:12.330Z,14.82
2023-04-05T17:07:43.960Z,14.35
2023-04-05T17:10:12.754Z,15.30
2023-04-05T17:12:42.298Z,14.63
2023-04-05T17:15:13.575Z,14.73
2023-04-05T17:17:43.723Z,14.45
2023-04-05T17:20:20.082Z,13.90
2023-04-05T17:22:50.240Z,14.68
2023-04-05T17:25:18.770Z,14.68
2023-04-05T17:27:49.370Z,14.65
2023-04-05T17:30:18.384Z,15.73
2023-04-05T17:32:51.295Z,13.45
2023-04-05T17:35:21.913Z,15.00
2023-04-05T17:37:50.259Z,14.25
2023-04-05T17:40:18.881Z,15.05
2023-04-05T17:42:47.428Z,14.35
2023-04-05T17:45:16.127Z,12.90
2023-04-05T17:47:47.424Z,14.73
2023-04-05T17:50:17.568Z,15.52
2023-04-05T17:52:46.440Z,14.55
2023-04-05T17:55:15.003Z,15.20
2023-04-05T17:57:43.600Z,15.57
2023-04-05T18:00:18.188Z,16.42
2023-04-05T18:02:47.194Z,14.63
2023-04-05T18:05:17.664Z,13.98
2023-04-05T18:07:46.369Z,14.65
2023-04-05T18:10:20.583Z,13.90
2023-04-05T18:12:48.888Z,14.82
2023-04-05T18:15:18.556Z,15.30
2023-04-05T18:17:47.376Z,15.20
2023-04-05T18:20:17.559Z,14.55
2023-04-05T18:22:47.365Z,14.73
2023-04-05T18:25:20.313Z,15.05
2023-04-05T18:27:57.788Z,13.90
2023-04-05T18:30:26.946Z,15.13
2023-04-05T18:32:59.976Z,15.32
2023-04-05T18:35:30.059Z,14.40
2023-04-05T18:37:59.211Z,14.75
2023-04-05T18:40:27.505Z,14.82
2023-04-05T18:42:58.804Z,13.30
2023-04-05T18:45:27.351Z,14.98
2023-04-05T18:47:56.211Z,17.15
2023-04-05T18:50:24.556Z,16.58
2023-04-05T18:52:55.282Z,15.70
2023-04-05T18:55:23.727Z,15.52
2023-04-05T18:57:57.049Z,16.50
2023-04-05T19:00:25.447Z,16.08
2023-04-05T19:02:53.812Z,16.25
2023-04-05T19:05:29.944Z,14.68
2023-04-05T19:07:59.644Z,16.25
2023-04-05T19:10:27.850Z,15.00
2023-04-05T19:12:56.721Z,15.65
2023-04-05T19:15:28.415Z,15.82
2023-04-05T19:18:01.151Z,14.90
2023-04-05T19:20:31.814Z,14.82
2023-04-05T19:23:02.442Z,15.80
2023-04-05T19:25:30.740Z,16.13
2023-04-05T19:27:59.261Z,15.23
2023-04-05T19:30:32.804Z,14.88
2023-04-05T19:33:01.309Z,16.55
2023-04-05T19:35:31.896Z,15.93
2023-04-05T19:38:04.563Z,15.20
2023-04-05T19:40:33.172Z,16.63
2023-04-05T19:43:02.258Z,15.70
2023-04-05T19:45:31.932Z,16.52
2023-04-05T19:48:02.531Z,16.45
2023-04-05T19:50:48.554Z,16.50
2023-04-05T19:53:41.318Z,15.10
2023-04-05T19:56:12.638Z,15.52
2023-04-05T19:58:40.964Z,15.02
2023-04-05T20:01:09.833Z,16.98
2023-04-05T20:03:39.770Z,16.77
2023-04-05T20:06:10.312Z,17.10
2023-04-05T20:08:41.665Z,17.25
2023-04-05T20:11:12.431Z,16.95
2023-04-05T20:13:45.118Z,16.08
2023-04-05T20:16:18.739Z,17.67
2023-04-05T20:18:50.656Z,16.48
2023-04-05T20:21:20.301Z,16.00
2023-04-05T20:23:52.977Z,16.88
2023-04-05T20:26:27.721Z,18.30
2023-04-05T20:29:00.131Z,15.82
2023-04-05T20:31:30.896Z,16.92
2023-04-05T20:34:10.148Z,18.15
2023-04-05T20:36:39.930Z,16.52
2023-04-05T20:39:13.144Z,16.75
2023-04-05T20:41:42.379Z,16.70
2023-04-05T20:44:10.838Z,17.38
2023-04-05T20:46:39.153Z,16.60
2023-04-05T20:49:07.819Z,16.35
2023-04-05T20:51:36.557Z,16.08
2023-04-05T20:54:04.995Z,17.42
2023-04-05T20:56:34.608Z,17.80
2023-04-05T20:59:02.898Z,17.20
2023-04-05T21:01:31.289Z,18.35
2023-04-05T21:03:59.801Z,17.20
2023-04-05T21:06:27.848Z,17.45
2023-04-05T21:08:56.311Z,18.33
2023-04-05T21:11:24.490Z,17.25
2023-04-05T21:13:54.325Z,17.53
2023-04-05T21:16:22.524Z,18.55
2023-04-05T21:18:51.057Z,17.77
2023-04-05T21:21:19.218Z,18.75
2023-04-05T21:23:47.992Z,17.98
2023-04-05T21:26:16.221Z,18.25
2023-04-05T21:28:44.207Z,17.67
2023-04-05T21:31:13.739Z,17.20
2023-04-05T21:33:41.795Z,18.27
2023-04-05T21:36:09.950Z,17.60
2023-04-05T21:38:38.254Z,16.48
2023-04-05T21:41:06.418Z,18.75
2023-04-05T21:43:34.384Z,18.15
2023-04-05T21:46:02.513Z,18.73
2023-04-05T21:48:31.901Z,17.58
2023-04-05T21:51:00.243Z,18.97
2023-04-05T21:53:28.720Z,19.58
2023-04-05T21:55:56.914Z,18.08
2023-04-05T21:58:26.573Z,17.75
2023-04-05T22:00:55.003Z,20.85
2023-04-05T22:03:23.169Z,18.07
2023-04-05T22:05:52.677Z,18.00
2023-04-05T22:08:20.822Z,19.15
2023-04-05T22:10:49.121Z,18.50
2023-04-05T22:13:17.139Z,18.10
2023-04-05T22:15:45.939Z,18.70
2023-04-05T22:18:17.807Z,19.27
2023-04-05T22:20:46.005Z,18.93
2023-04-05T22:23:15.457Z,19.23
2023-04-05T22:25:43.528Z,18.50
2023-04-05T22:28:11.541Z,18.83
2023-04-05T22:30:44.097Z,18.40
2023-04-05T22:33:13.769Z,18.67
2023-04-05T22:35:42.951Z,18.43
2023-04-05T22:38:11.027Z,18.30
2023-04-05T22:40:40.609Z,19.40
2023-04-05T22:43:09.656Z,18.23
2023-04-05T22:45:37.811Z,18.05
2023-04-05T22:48:06.984Z,19.47
2023-04-05T22:50:35.295Z,18.43
2023-04-05T22:53:03.371Z,18.53
2023-04-05T22:55:31.380Z,19.43
2023-04-05T22:58:01.083Z,19.20
2023-04-05T23:00:29.064Z,18.05
2023-04-05T23:02:57.227Z,18.53
2023-04-05T23:05:25.372Z,18.63
2023-04-05T23:07:53.585Z,18.93
2023-04-05T23:10:21.788Z,20.00
2023-04-05T23:12:49.973Z,18.83
2023-04-05T23:15:19.728Z,17.63
2023-04-05T23:17:49.185Z,18.93
2023-04-05T23:20:17.552Z,18.90
2023-04-05T23:22:45.629Z,18.80
2023-04-05T23:25:14.412Z,18.77
2023-04-05T23:27:44.392Z,19.67
2023-04-05T23:30:13.286Z,19.15
2023-04-05T23:32:42.627Z,17.33
2023-04-05T23:35:11.096Z,18.13
2023-04-05T23:37:39.151Z,18.73
2023-04-05T23:40:08.872Z,16.93
2023-04-05T23:42:37.010Z,17.90
2023-04-05T23:45:08.989Z,16.20
2023-04-05T23:47:38.335Z,16.93
2023-04-05T23:50:09.799Z,17.33
2023-04-05T23:52:37.983Z,16.73
2023-04-05T23:55:06.706Z,15.70
2023-04-05T23:57:34.848Z,16.07
